sensor_id;sensor_type;location;lat;lon;timestamp;pressure;altitude;pressure_sealevel;temperature;humidity
74524;BME280;63074;44.696;10.358;2023-03-31T00:02:25;100109.97;;;10.38;100.00
74524;BME280;63074;44.696;10.358;2023-03-31T00:04:54;100111.91;;;10.20;100.00
74524;BME280;63074;44.696;10.358;2023-03-31T00:07:24;100111.53;;;10.16;100.00
74524;BME280;63074;44.696;10.358;2023-03-31T00:09:50;100109.53;;;10.11;100.00
74524;BME280;63074;44.696;10.358;2023-03-31T00:12:20;100121.53;;;9.97;100.00
74524;BME280;63074;44.696;10.358;2023-03-31T00:14:46;100120.84;;;10.02;100.00
74524;BME280;63074;44.696;10.358;2023-03-31T00:17:13;100122.72;;;10.01;100.00
74524;BME280;63074;44.696;10.358;2023-03-31T00:19:39;100118.56;;;9.75;100.00
74524;BME280;63074;44.696;10.358;2023-03-31T00:22:07;100130.06;;;9.64;100.00
74524;BME280;63074;44.696;10.358;2023-03-31T00:24:34;100120.66;;;9.73;100.00
74524;BME280;63074;44.696;10.358;2023-03-31T00:27:01;100100.94;;;9.79;100.00
74524;BME280;63074;44.696;10.358;2023-03-31T00:29:29;100107.41;;;9.60;100.00
74524;BME280;63074;44.696;10.358;2023-03-31T00:31:56;100097.50;;;9.61;100.00
74524;BME280;63074;44.696;10.358;2023-03-31T00:34:25;100090.31;;;9.73;100.00
74524;BME280;63074;44.696;10.358;2023-03-31T00:36:51;100087.94;;;9.65;100.00
74524;BME280;63074;44.696;10.358;2023-03-31T00:39:22;100079.91;;;9.65;100.00
74524;BME280;63074;44.696;10.358;2023-03-31T00:41:49;100083.22;;;9.78;100.00
74524;BME280;63074;44.696;10.358;2023-03-31T00:44:17;100084.13;;;9.72;100.00
74524;BME280;63074;44.696;10.358;2023-03-31T00:47:00;100078.44;;;9.80;100.00
74524;BME280;63074;44.696;10.358;2023-03-31T00:49:34;100073.09;;;10.15;100.00
74524;BME280;63074;44.696;10.358;2023-03-31T00:52:23;100074.22;;;9.85;100.00
74524;BME280;63074;44.696;10.358;2023-03-31T00:54:54;100070.03;;;9.89;100.00
74524;BME280;63074;44.696;10.358;2023-03-31T00:57:22;100075.50;;;10.24;100.00
74524;BME280;63074;44.696;10.358;2023-03-31T00:59:55;100065.09;;;10.27;100.00
74524;BME280;63074;44.696;10.358;2023-03-31T01:02:23;100070.41;;;9.92;100.00
74524;BME280;63074;44.696;10.358;2023-03-31T01:04:54;100070.44;;;9.62;100.00
74524;BME280;63074;44.696;10.358;2023-03-31T01:07:28;100069.94;;;9.24;100.00
74524;BME280;63074;44.696;10.358;2023-03-31T01:10:00;100061.72;;;9.37;100.00
74524;BME280;63074;44.696;10.358;2023-03-31T01:12:28;100060.50;;;9.51;100.00
74524;BME280;63074;44.696;10.358;2023-03-31T01:14:55;100056.94;;;9.69;100.00
74524;BME280;63074;44.696;10.358;2023-03-31T01:17:22;100038.19;;;10.15;100.00
74524;BME280;63074;44.696;10.358;2023-03-31T01:47:58;100002.31;;;8.73;100.00
74524;BME280;63074;44.696;10.358;2023-03-31T01:55:38;99989.22;;;9.13;100.00
74524;BME280;63074;44.696;10.358;2023-03-31T02:00:44;99991.97;;;8.40;100.00
74524;BME280;63074;44.696;10.358;2023-03-31T02:03:36;99975.59;;;8.67;100.00
74524;BME280;63074;44.696;10.358;2023-03-31T02:06:12;99979.31;;;9.14;100.00
74524;BME280;63074;44.696;10.358;2023-03-31T02:09:01;99970.19;;;8.55;100.00
74524;BME280;63074;44.696;10.358;2023-03-31T02:11:29;99969.38;;;8.36;100.00
74524;BME280;63074;44.696;10.358;2023-03-31T02:13:58;99962.38;;;8.54;100.00
74524;BME280;63074;44.696;10.358;2023-03-31T02:16:31;99958.66;;;8.36;100.00
74524;BME280;63074;44.696;10.358;2023-03-31T02:19:03;99958.06;;;8.53;100.00
74524;BME280;63074;44.696;10.358;2023-03-31T02:21:33;99962.38;;;8.54;100.00
74524;BME280;63074;44.696;10.358;2023-03-31T02:24:03;99982.38;;;8.51;100.00
74524;BME280;63074;44.696;10.358;2023-03-31T02:26:33;99982.91;;;8.41;100.00
74524;BME280;63074;44.696;10.358;2023-03-31T02:29:01;99984.53;;;8.42;100.00
74524;BME280;63074;44.696;10.358;2023-03-31T02:34:16;99974.66;;;8.61;100.00
74524;BME280;63074;44.696;10.358;2023-03-31T02:36:43;99985.13;;;8.44;100.00
74524;BME280;63074;44.696;10.358;2023-03-31T02:39:20;99987.59;;;8.46;100.00
74524;BME280;63074;44.696;10.358;2023-03-31T02:41:49;99988.56;;;8.52;100.00
74524;BME280;63074;44.696;10.358;2023-03-31T02:44:16;99983.50;;;8.43;100.00
74524;BME280;63074;44.696;10.358;2023-03-31T02:46:43;99983.28;;;8.45;100.00
74524;BME280;63074;44.696;10.358;2023-03-31T02:49:11;99987.22;;;8.61;100.00
74524;BME280;63074;44.696;10.358;2023-03-31T02:51:44;99991.53;;;8.62;100.00
74524;BME280;63074;44.696;10.358;2023-03-31T03:07:23;99974.78;;;8.66;100.00
74524;BME280;63074;44.696;10.358;2023-03-31T03:10:26;99951.56;;;8.24;100.00
74524;BME280;63074;44.696;10.358;2023-03-31T03:13:43;99954.81;;;8.32;100.00
74524;BME280;63074;44.696;10.358;2023-03-31T03:16:22;99956.47;;;8.27;100.00
74524;BME280;63074;44.696;10.358;2023-03-31T03:19:01;99948.88;;;8.05;100.00
74524;BME280;63074;44.696;10.358;2023-03-31T03:21:28;99951.34;;;8.07;100.00
74524;BME280;63074;44.696;10.358;2023-03-31T03:23:55;99953.97;;;7.89;100.00
74524;BME280;63074;44.696;10.358;2023-03-31T03:26:22;99945.50;;;8.10;100.00
74524;BME280;63074;44.696;10.358;2023-03-31T03:28:52;99928.94;;;8.20;100.00
74524;BME280;63074;44.696;10.358;2023-03-31T03:31:19;99928.22;;;7.69;100.00
74524;BME280;63074;44.696;10.358;2023-03-31T03:33:46;99926.31;;;7.76;100.00
74524;BME280;63074;44.696;10.358;2023-03-31T03:36:12;99926.88;;;8.03;100.00
74524;BME280;63074;44.696;10.358;2023-03-31T03:38:38;99908.50;;;7.64;100.00
74524;BME280;63074;44.696;10.358;2023-03-31T03:41:04;99913.69;;;7.34;100.00
74524;BME280;63074;44.696;10.358;2023-03-31T03:43:31;99915.50;;;7.40;100.00
74524;BME280;63074;44.696;10.358;2023-03-31T03:45:57;99919.78;;;7.48;100.00
74524;BME280;63074;44.696;10.358;2023-03-31T03:48:23;99924.72;;;7.69;100.00
74524;BME280;63074;44.696;10.358;2023-03-31T03:50:49;99927.44;;;7.87;100.00
74524;BME280;63074;44.696;10.358;2023-03-31T03:53:17;99931.69;;;7.95;100.00
74524;BME280;63074;44.696;10.358;2023-03-31T03:55:44;99929.31;;;8.23;100.00
74524;BME280;63074;44.696;10.358;2023-03-31T03:58:10;99925.13;;;8.09;100.00
74524;BME280;63074;44.696;10.358;2023-03-31T04:00:36;99930.28;;;7.67;100.00
74524;BME280;63074;44.696;10.358;2023-03-31T04:03:02;99928.25;;;7.88;100.00
74524;BME280;63074;44.696;10.358;2023-03-31T04:05:29;99919.72;;;7.97;100.00
74524;BME280;63074;44.696;10.358;2023-03-31T04:07:55;99920.66;;;7.85;100.00
74524;BME280;63074;44.696;10.358;2023-03-31T04:10:21;99928.94;;;8.01;100.00
74524;BME280;63074;44.696;10.358;2023-03-31T04:12:47;99939.44;;;8.21;100.00
74524;BME280;63074;44.696;10.358;2023-03-31T04:15:13;99939.38;;;8.28;100.00
74524;BME280;63074;44.696;10.358;2023-03-31T04:17:39;99945.00;;;8.20;100.00
74524;BME280;63074;44.696;10.358;2023-03-31T04:20:08;99937.81;;;8.38;100.00
74524;BME280;63074;44.696;10.358;2023-03-31T04:22:38;99940.41;;;8.27;100.00
74524;BME280;63074;44.696;10.358;2023-03-31T04:25:10;99946.66;;;8.21;100.00
74524;BME280;63074;44.696;10.358;2023-03-31T04:27:42;99944.94;;;8.08;100.00
74524;BME280;63074;44.696;10.358;2023-03-31T04:30:16;99944.03;;;8.14;100.00
74524;BME280;63074;44.696;10.358;2023-03-31T04:33:00;99934.75;;;8.17;100.00
74524;BME280;63074;44.696;10.358;2023-03-31T04:35:29;99931.91;;;8.11;100.00
74524;BME280;63074;44.696;10.358;2023-03-31T04:38:28;99926.66;;;8.05;100.00
74524;BME280;63074;44.696;10.358;2023-03-31T04:40:59;99924.25;;;7.97;100.00
74524;BME280;63074;44.696;10.358;2023-03-31T04:43:25;99912.44;;;8.04;100.00
74524;BME280;63074;44.696;10.358;2023-03-31T04:45:51;99916.31;;;8.27;100.00
74524;BME280;63074;44.696;10.358;2023-03-31T04:48:17;99915.63;;;8.13;100.00
74524;BME280;63074;44.696;10.358;2023-03-31T04:50:45;99909.84;;;8.16;100.00
74524;BME280;63074;44.696;10.358;2023-03-31T04:53:12;99907.47;;;8.26;100.00
74524;BME280;63074;44.696;10.358;2023-03-31T04:55:38;99903.81;;;8.21;100.00
74524;BME280;63074;44.696;10.358;2023-03-31T04:58:04;99898.47;;;8.21;100.00
74524;BME280;63074;44.696;10.358;2023-03-31T05:00:30;99895.84;;;8.14;100.00
74524;BME280;63074;44.696;10.358;2023-03-31T05:02:58;99892.97;;;8.16;100.00
74524;BME280;63074;44.696;10.358;2023-03-31T05:05:24;99893.19;;;8.14;100.00
74524;BME280;63074;44.696;10.358;2023-03-31T05:07:50;99897.44;;;8.03;100.00
74524;BME280;63074;44.696;10.358;2023-03-31T05:10:17;99900.31;;;8.20;100.00
74524;BME280;63074;44.696;10.358;2023-03-31T05:12:43;99894.59;;;8.17;100.00
74524;BME280;63074;44.696;10.358;2023-03-31T05:15:09;99892.22;;;8.27;100.00
74524;BME280;63074;44.696;10.358;2023-03-31T05:17:36;99893.63;;;8.29;100.00
74524;BME280;63074;44.696;10.358;2023-03-31T05:20:03;99886.88;;;8.27;100.00
74524;BME280;63074;44.696;10.358;2023-03-31T05:22:37;99893.94;;;8.21;100.00
74524;BME280;63074;44.696;10.358;2023-03-31T05:25:05;99903.38;;;8.05;100.00
74524;BME280;63074;44.696;10.358;2023-03-31T05:27:32;99883.09;;;7.98;100.00
74524;BME280;63074;44.696;10.358;2023-03-31T05:29:58;99869.09;;;8.14;100.00
74524;BME280;63074;44.696;10.358;2023-03-31T05:32:25;99858.34;;;8.02;100.00
74524;BME280;63074;44.696;10.358;2023-03-31T05:34:52;99865.16;;;7.98;100.00
74524;BME280;63074;44.696;10.358;2023-03-31T05:37:22;99865.44;;;7.90;100.00
74524;BME280;63074;44.696;10.358;2023-03-31T05:39:50;99867.84;;;7.98;100.00
74524;BME280;63074;44.696;10.358;2023-03-31T05:42:16;99870.13;;;8.13;100.00
74524;BME280;63074;44.696;10.358;2023-03-31T05:44:42;99875.72;;;8.30;100.00
74524;BME280;63074;44.696;10.358;2023-03-31T05:47:08;99878.03;;;8.08;100.00
74524;BME280;63074;44.696;10.358;2023-03-31T05:49:35;99880.53;;;8.21;100.00
74524;BME280;63074;44.696;10.358;2023-03-31T05:52:01;99866.25;;;8.09;100.00
74524;BME280;63074;44.696;10.358;2023-03-31T05:54:27;99876.13;;;8.33;100.00
74524;BME280;63074;44.696;10.358;2023-03-31T05:56:53;99884.19;;;8.63;100.00
74524;BME280;63074;44.696;10.358;2023-03-31T05:59:19;99883.16;;;8.76;100.00
74524;BME280;63074;44.696;10.358;2023-03-31T06:01:46;99878.47;;;8.71;100.00
74524;BME280;63074;44.696;10.358;2023-03-31T06:04:12;99877.66;;;8.71;100.00
74524;BME280;63074;44.696;10.358;2023-03-31T06:06:38;99866.03;;;8.65;100.00
74524;BME280;63074;44.696;10.358;2023-03-31T06:09:05;99877.66;;;8.71;100.00
74524;BME280;63074;44.696;10.358;2023-03-31T06:11:31;99865.59;;;8.80;100.00
74524;BME280;63074;44.696;10.358;2023-03-31T06:13:57;99862.59;;;8.88;100.00
74524;BME280;63074;44.696;10.358;2023-03-31T06:16:23;99866.22;;;8.94;100.00
74524;BME280;63074;44.696;10.358;2023-03-31T06:18:50;99847.75;;;9.16;100.00
74524;BME280;63074;44.696;10.358;2023-03-31T06:21:18;99843.31;;;9.33;100.00
74524;BME280;63074;44.696;10.358;2023-03-31T06:23:46;99844.03;;;9.40;100.00
74524;BME280;63074;44.696;10.358;2023-03-31T06:26:18;99839.47;;;9.29;100.00
74524;BME280;63074;44.696;10.358;2023-03-31T06:28:45;99832.47;;;9.39;100.00
74524;BME280;63074;44.696;10.358;2023-03-31T06:31:17;99835.75;;;9.41;100.00
74524;BME280;63074;44.696;10.358;2023-03-31T06:33:43;99832.72;;;9.61;100.00
74524;BME280;63074;44.696;10.358;2023-03-31T06:36:12;99841.91;;;9.65;100.00
74524;BME280;63074;44.696;10.358;2023-03-31T06:38:40;99824.44;;;9.74;100.00
74524;BME280;63074;44.696;10.358;2023-03-31T06:41:08;99818.31;;;9.91;100.00
74524;BME280;63074;44.696;10.358;2023-03-31T06:43:34;99798.06;;;10.11;100.00
74524;BME280;63074;44.696;10.358;2023-03-31T06:46:00;99811.38;;;10.18;100.00
74524;BME280;63074;44.696;10.358;2023-03-31T06:48:27;99810.66;;;10.34;100.00
74524;BME280;63074;44.696;10.358;2023-03-31T06:50:54;99810.06;;;10.61;100.00
74524;BME280;63074;44.696;10.358;2023-03-31T06:53:21;99797.78;;;10.98;100.00
74524;BME280;63074;44.696;10.358;2023-03-31T06:55:47;99786.81;;;11.16;100.00
74524;BME280;63074;44.696;10.358;2023-03-31T06:58:13;99789.47;;;11.33;100.00
74524;BME280;63074;44.696;10.358;2023-03-31T07:00:39;99779.75;;;11.49;100.00
74524;BME280;63074;44.696;10.358;2023-03-31T07:03:06;99781.19;;;11.57;100.00
74524;BME280;63074;44.696;10.358;2023-03-31T07:05:34;99766.81;;;11.68;100.00
74524;BME280;63074;44.696;10.358;2023-03-31T07:08:00;99763.59;;;11.88;100.00
74524;BME280;63074;44.696;10.358;2023-03-31T07:10:28;99759.22;;;11.81;100.00
74524;BME280;63074;44.696;10.358;2023-03-31T07:12:55;99746.75;;;11.75;100.00
74524;BME280;63074;44.696;10.358;2023-03-31T07:15:21;99745.13;;;11.96;100.00
74524;BME280;63074;44.696;10.358;2023-03-31T07:17:48;99734.38;;;12.23;100.00
74524;BME280;63074;44.696;10.358;2023-03-31T07:20:17;99732.94;;;12.42;100.00
74524;BME280;63074;44.696;10.358;2023-03-31T07:22:44;99737.47;;;12.64;100.00
74524;BME280;63074;44.696;10.358;2023-03-31T07:25:12;99744.03;;;12.78;100.00
74524;BME280;63074;44.696;10.358;2023-03-31T07:27:39;99736.06;;;12.88;100.00
74524;BME280;63074;44.696;10.358;2023-03-31T07:30:10;99742.72;;;12.80;100.00
74524;BME280;63074;44.696;10.358;2023-03-31T07:32:38;99738.28;;;12.96;100.00
74524;BME280;63074;44.696;10.358;2023-03-31T07:35:10;99737.47;;;13.01;100.00
74524;BME280;63074;44.696;10.358;2023-03-31T07:37:42;99742.78;;;13.17;100.00
74524;BME280;63074;44.696;10.358;2023-03-31T07:40:14;99725.44;;;13.13;100.00
74524;BME280;63074;44.696;10.358;2023-03-31T07:42:42;99727.22;;;13.35;100.00
74524;BME280;63074;44.696;10.358;2023-03-31T07:45:09;99716.22;;;13.46;100.00
74524;BME280;63074;44.696;10.358;2023-03-31T07:47:35;99729.00;;;13.66;100.00
74524;BME280;63074;44.696;10.358;2023-03-31T07:50:03;99716.81;;;13.59;100.00
74524;BME280;63074;44.696;10.358;2023-03-31T07:52:30;99732.09;;;14.00;100.00
74524;BME280;63074;44.696;10.358;2023-03-31T07:54:56;99744.31;;;14.13;100.00
74524;BME280;63074;44.696;10.358;2023-03-31T07:57:22;99749.69;;;14.08;100.00
74524;BME280;63074;44.696;10.358;2023-03-31T07:59:48;99755.38;;;14.11;100.00
74524;BME280;63074;44.696;10.358;2023-03-31T08:02:16;99758.94;;;14.27;100.00
74524;BME280;63074;44.696;10.358;2023-03-31T08:04:43;99752.97;;;14.25;99.66
74524;BME280;63074;44.696;10.358;2023-03-31T08:07:11;99760.81;;;14.27;100.00
74524;BME280;63074;44.696;10.358;2023-03-31T08:09:38;99754.09;;;14.34;99.15
74524;BME280;63074;44.696;10.358;2023-03-31T08:12:05;99768.16;;;14.36;100.00
74524;BME280;63074;44.696;10.358;2023-03-31T08:14:32;99751.88;;;14.21;100.00
74524;BME280;63074;44.696;10.358;2023-03-31T08:16:58;99744.63;;;14.32;100.00
74524;BME280;63074;44.696;10.358;2023-03-31T08:19:25;99749.78;;;14.38;100.00
74524;BME280;63074;44.696;10.358;2023-03-31T08:21:52;99754.34;;;14.28;98.95
74524;BME280;63074;44.696;10.358;2023-03-31T08:24:19;99738.66;;;14.30;100.00
74524;BME280;63074;44.696;10.358;2023-03-31T08:26:45;99724.34;;;14.34;100.00
74524;BME280;63074;44.696;10.358;2023-03-31T08:29:11;99724.34;;;14.29;100.00
74524;BME280;63074;44.696;10.358;2023-03-31T08:31:38;99724.38;;;14.44;100.00
74524;BME280;63074;44.696;10.358;2023-03-31T08:34:04;99726.56;;;14.52;100.00
74524;BME280;63074;44.696;10.358;2023-03-31T08:36:31;99717.59;;;14.37;100.00
74524;BME280;63074;44.696;10.358;2023-03-31T08:38:58;99710.09;;;14.59;100.00
74524;BME280;63074;44.696;10.358;2023-03-31T08:41:36;99713.31;;;14.81;100.00
74524;BME280;63074;44.696;10.358;2023-03-31T08:44:37;99716.00;;;15.17;100.00
74524;BME280;63074;44.696;10.358;2023-03-31T08:47:08;99725.75;;;15.23;100.00
74524;BME280;63074;44.696;10.358;2023-03-31T08:50:07;99744.44;;;14.94;100.00
74524;BME280;63074;44.696;10.358;2023-03-31T08:53:07;99736.06;;;15.01;99.34
74524;BME280;63074;44.696;10.358;2023-03-31T08:55:49;99752.03;;;14.97;100.00
74524;BME280;63074;44.696;10.358;2023-03-31T08:58:42;99731.97;;;14.73;100.00
74524;BME280;63074;44.696;10.358;2023-03-31T09:09:54;99722.50;;;15.16;100.00
74524;BME280;63074;44.696;10.358;2023-03-31T09:12:38;99719.50;;;15.28;100.00
74524;BME280;63074;44.696;10.358;2023-03-31T09:15:26;99711.41;;;15.17;100.00
74524;BME280;63074;44.696;10.358;2023-03-31T09:17:54;99709.28;;;14.99;99.60
74524;BME280;63074;44.696;10.358;2023-03-31T09:20:28;99705.41;;;15.31;100.00
74524;BME280;63074;44.696;10.358;2023-03-31T09:23:43;99710.25;;;15.44;99.33
74524;BME280;63074;44.696;10.358;2023-03-31T09:25:49;99714.56;;;15.45;99.12
74524;BME280;63074;44.696;10.358;2023-03-31T09:28:37;99699.69;;;15.37;99.02
74524;BME280;63074;44.696;10.358;2023-03-31T09:31:15;99695.34;;;15.46;99.12
74524;BME280;63074;44.696;10.358;2023-03-31T09:33:45;99704.03;;;15.43;97.09
74524;BME280;63074;44.696;10.358;2023-03-31T09:36:18;99684.47;;;15.62;96.64
74524;BME280;63074;44.696;10.358;2023-03-31T09:38:45;99693.25;;;15.98;94.98
74524;BME280;63074;44.696;10.358;2023-03-31T09:41:14;99675.69;;;16.34;94.37
74524;BME280;63074;44.696;10.358;2023-03-31T09:43:41;99664.56;;;16.36;92.51
74524;BME280;63074;44.696;10.358;2023-03-31T09:46:30;99662.44;;;16.67;92.72
74524;BME280;63074;44.696;10.358;2023-03-31T09:49:11;99666.53;;;16.59;93.00
74524;BME280;63074;44.696;10.358;2023-03-31T09:51:43;99652.41;;;16.62;91.26
74524;BME280;63074;44.696;10.358;2023-03-31T09:54:34;99642.91;;;16.65;91.44
74524;BME280;63074;44.696;10.358;2023-03-31T09:57:02;99630.50;;;16.87;91.29
74524;BME280;63074;44.696;10.358;2023-03-31T09:59:37;99619.63;;;17.11;89.33
74524;BME280;63074;44.696;10.358;2023-03-31T10:02:20;99602.78;;;17.14;89.01
74524;BME280;63074;44.696;10.358;2023-03-31T10:04:49;99595.38;;;17.20;89.44
74524;BME280;63074;44.696;10.358;2023-03-31T10:07:21;99582.16;;;17.13;88.38
74524;BME280;63074;44.696;10.358;2023-03-31T10:09:48;99583.91;;;17.28;88.21
74524;BME280;63074;44.696;10.358;2023-03-31T10:12:21;99571.88;;;17.10;88.22
74524;BME280;63074;44.696;10.358;2023-03-31T10:14:51;99554.75;;;17.34;87.27
74524;BME280;63074;44.696;10.358;2023-03-31T10:17:23;99552.34;;;17.51;86.56
74524;BME280;63074;44.696;10.358;2023-03-31T10:19:56;99544.53;;;17.68;87.34
74524;BME280;63074;44.696;10.358;2023-03-31T10:22:27;99551.69;;;17.97;82.89
74524;BME280;63074;44.696;10.358;2023-03-31T10:24:54;99560.06;;;18.19;80.55
74524;BME280;63074;44.696;10.358;2023-03-31T10:27:32;99563.31;;;18.35;77.46
74524;BME280;63074;44.696;10.358;2023-03-31T10:30:00;99559.50;;;18.49;76.52
74524;BME280;63074;44.696;10.358;2023-03-31T10:32:31;99555.59;;;18.55;76.45
74524;BME280;63074;44.696;10.358;2023-03-31T10:35:04;99547.69;;;18.73;76.36
74524;BME280;63074;44.696;10.358;2023-03-31T10:37:32;99536.69;;;18.78;75.80
74524;BME280;63074;44.696;10.358;2023-03-31T10:40:13;99532.78;;;18.70;73.66
74524;BME280;63074;44.696;10.358;2023-03-31T10:42:42;99529.06;;;19.43;72.24
74524;BME280;63074;44.696;10.358;2023-03-31T10:47:51;99513.63;;;18.29;72.62
74524;BME280;63074;44.696;10.358;2023-03-31T10:50:17;99497.31;;;18.15;72.96
74524;BME280;63074;44.696;10.358;2023-03-31T10:52:46;99500.81;;;17.65;72.50
74524;BME280;63074;44.696;10.358;2023-03-31T10:55:17;99487.31;;;18.25;77.10
74524;BME280;63074;44.696;10.358;2023-03-31T11:00:39;99472.47;;;17.14;81.24
74524;BME280;63074;44.696;10.358;2023-03-31T11:03:18;99468.13;;;16.95;85.03
74524;BME280;63074;44.696;10.358;2023-03-31T11:14:48;99466.34;;;16.85;83.52
74524;BME280;63074;44.696;10.358;2023-03-31T11:20:34;99472.41;;;16.77;87.47
74524;BME280;63074;44.696;10.358;2023-03-31T11:37:19;99452.88;;;16.27;84.42
74524;BME280;63074;44.696;10.358;2023-03-31T11:40:03;99441.22;;;16.27;82.66
74524;BME280;63074;44.696;10.358;2023-03-31T11:45:19;99420.63;;;16.49;82.13
74524;BME280;63074;44.696;10.358;2023-03-31T11:47:49;99418.00;;;16.44;82.61
74524;BME280;63074;44.696;10.358;2023-03-31T11:50:23;99404.81;;;16.80;86.00
74524;BME280;63074;44.696;10.358;2023-03-31T11:53:13;99395.94;;;16.94;89.01
74524;BME280;63074;44.696;10.358;2023-03-31T11:55:41;99383.63;;;17.01;87.87
74524;BME280;63074;44.696;10.358;2023-03-31T12:06:32;99352.38;;;17.87;83.98
74524;BME280;63074;44.696;10.358;2023-03-31T12:09:20;99355.34;;;18.54;82.10
74524;BME280;63074;44.696;10.358;2023-03-31T12:14:40;99348.66;;;19.02;78.38
74524;BME280;63074;44.696;10.358;2023-03-31T12:17:13;99332.50;;;19.28;75.78
74524;BME280;63074;44.696;10.358;2023-03-31T12:19:53;99327.28;;;19.17;76.32
74524;BME280;63074;44.696;10.358;2023-03-31T12:22:27;99322.88;;;20.23;75.08
74524;BME280;63074;44.696;10.358;2023-03-31T12:24:54;99304.66;;;21.53;69.60
74524;BME280;63074;44.696;10.358;2023-03-31T12:30:02;99304.03;;;21.39;64.66
74524;BME280;63074;44.696;10.358;2023-03-31T12:32:39;99305.66;;;20.88;66.29
74524;BME280;63074;44.696;10.358;2023-03-31T12:45:29;99271.00;;;22.08;63.24
74524;BME280;63074;44.696;10.358;2023-03-31T12:53:40;99271.44;;;21.08;65.43
74524;BME280;63074;44.696;10.358;2023-03-31T12:56:09;99268.25;;;20.71;66.33
74524;BME280;63074;44.696;10.358;2023-03-31T12:58:40;99262.09;;;20.31;68.23
74524;BME280;63074;44.696;10.358;2023-03-31T13:01:16;99260.47;;;20.30;68.53
74524;BME280;63074;44.696;10.358;2023-03-31T13:14:23;99201.44;;;20.51;67.76
74524;BME280;63074;44.696;10.358;2023-03-31T13:16:50;99205.91;;;20.13;68.16
74524;BME280;63074;44.696;10.358;2023-03-31T13:19:32;99202.03;;;21.94;66.96
74524;BME280;63074;44.696;10.358;2023-03-31T13:22:01;99193.06;;;22.55;62.45
74524;BME280;63074;44.696;10.358;2023-03-31T13:24:29;99202.81;;;23.31;59.73
74524;BME280;63074;44.696;10.358;2023-03-31T13:26:57;99204.13;;;23.01;58.76
74524;BME280;63074;44.696;10.358;2023-03-31T13:29:38;99219.16;;;22.53;59.21
74524;BME280;63074;44.696;10.358;2023-03-31T13:32:21;99211.13;;;21.39;64.68
74524;BME280;63074;44.696;10.358;2023-03-31T13:35:05;99191.25;;;21.12;66.21
74524;BME280;63074;44.696;10.358;2023-03-31T13:40:34;99180.34;;;21.88;62.77
74524;BME280;63074;44.696;10.358;2023-03-31T13:51:30;99153.06;;;20.95;64.93
74524;BME280;63074;44.696;10.358;2023-03-31T13:56:47;99148.25;;;19.63;73.73
74524;BME280;63074;44.696;10.358;2023-03-31T14:02:29;99128.34;;;19.71;70.97
74524;BME280;63074;44.696;10.358;2023-03-31T14:08:08;99106.28;;;20.07;70.54
74524;BME280;63074;44.696;10.358;2023-03-31T14:10:38;99104.97;;;20.65;70.65
74524;BME280;63074;44.696;10.358;2023-03-31T14:13:14;99086.69;;;21.41;67.69
74524;BME280;63074;44.696;10.358;2023-03-31T14:15:51;99078.00;;;20.29;67.20
74524;BME280;63074;44.696;10.358;2023-03-31T14:18:31;99069.81;;;21.39;69.25
74524;BME280;63074;44.696;10.358;2023-03-31T14:21:14;99066.22;;;21.18;68.92
74524;BME280;63074;44.696;10.358;2023-03-31T14:24:08;99066.81;;;20.13;68.80
74524;BME280;63074;44.696;10.358;2023-03-31T14:32:16;99043.75;;;20.74;66.07
74524;BME280;63074;44.696;10.358;2023-03-31T14:37:19;99031.69;;;19.77;68.96
74524;BME280;63074;44.696;10.358;2023-03-31T14:39:51;99018.53;;;19.79;69.27
74524;BME280;63074;44.696;10.358;2023-03-31T14:42:39;99017.53;;;20.27;68.08
74524;BME280;63074;44.696;10.358;2023-03-31T14:45:20;99015.25;;;20.93;66.59
74524;BME280;63074;44.696;10.358;2023-03-31T14:48:09;99006.91;;;20.34;66.88
74524;BME280;63074;44.696;10.358;2023-03-31T14:50:41;99001.16;;;20.27;68.13
74524;BME280;63074;44.696;10.358;2023-03-31T14:53:14;99003.13;;;20.09;69.89
74524;BME280;63074;44.696;10.358;2023-03-31T14:55:41;98999.13;;;19.98;68.46
74524;BME280;63074;44.696;10.358;2023-03-31T14:58:11;98991.38;;;21.10;66.22
74524;BME280;63074;44.696;10.358;2023-03-31T15:00:40;98991.25;;;21.36;63.89
74524;BME280;63074;44.696;10.358;2023-03-31T15:03:10;98984.84;;;20.09;71.41
74524;BME280;63074;44.696;10.358;2023-03-31T15:05:39;98989.69;;;19.61;74.36
74524;BME280;63074;44.696;10.358;2023-03-31T15:08:23;98988.16;;;19.11;75.22
74524;BME280;63074;44.696;10.358;2023-03-31T15:10:58;98977.59;;;19.18;74.72
74524;BME280;63074;44.696;10.358;2023-03-31T15:13:48;98984.81;;;19.23;74.38
74524;BME280;63074;44.696;10.358;2023-03-31T15:16:36;98989.53;;;18.92;80.04
74524;BME280;63074;44.696;10.358;2023-03-31T15:19:37;98984.22;;;18.47;79.45
74524;BME280;63074;44.696;10.358;2023-03-31T15:22:13;98997.06;;;18.02;82.58
74524;BME280;63074;44.696;10.358;2023-03-31T15:24:41;98990.28;;;18.13;80.95
74524;BME280;63074;44.696;10.358;2023-03-31T15:27:16;98985.81;;;18.79;77.67
74524;BME280;63074;44.696;10.358;2023-03-31T15:29:47;98968.47;;;19.40;75.37
74524;BME280;63074;44.696;10.358;2023-03-31T15:32:18;98965.53;;;20.40;72.63
74524;BME280;63074;44.696;10.358;2023-03-31T15:34:48;98969.22;;;20.44;72.72
74524;BME280;63074;44.696;10.358;2023-03-31T15:37:15;98973.13;;;19.31;73.06
74524;BME280;63074;44.696;10.358;2023-03-31T15:39:46;98969.78;;;18.77;74.90
74524;BME280;63074;44.696;10.358;2023-03-31T15:42:13;98951.47;;;19.00;77.27
74524;BME280;63074;44.696;10.358;2023-03-31T15:44:46;98954.09;;;19.66;77.38
74524;BME280;63074;44.696;10.358;2023-03-31T15:49:57;98956.50;;;19.76;80.95
74524;BME280;63074;44.696;10.358;2023-03-31T15:52:36;98957.41;;;19.37;79.50
74524;BME280;63074;44.696;10.358;2023-03-31T15:55:39;98955.19;;;19.47;79.08
74524;BME280;63074;44.696;10.358;2023-03-31T15:58:05;98959.34;;;19.45;78.70